sensor_id;sensor_type;location;lat;lon;timestamp;pressure;altitude;pressure_sealevel;temperature;humidity
57827;BME280;43656;57.746;11.780;2023-04-07T00:00:50;102282.09;;;3.88;66.85
57827;BME280;43656;57.746;11.780;2023-04-07T00:03:16;102300.38;;;3.93;67.35
57827;BME280;43656;57.746;11.780;2023-04-07T00:05:42;102293.59;;;3.89;66.90
57827;BME280;43656;57.746;11.780;2023-04-07T00:08:07;102301.81;;;3.86;67.56
57827;BME280;43656;57.746;11.780;2023-04-07T00:10:33;102303.03;;;3.82;67.62
57827;BME280;43656;57.746;11.780;2023-04-07T00:12:58;102275.97;;;3.52;67.28
57827;BME280;43656;57.746;11.780;2023-04-07T00:15:23;102312.16;;;3.66;68.00
57827;BME280;43656;57.746;11.780;2023-04-07T00:17:49;102312.53;;;3.62;67.68
57827;BME280;43656;57.746;11.780;2023-04-07T00:20:14;102309.34;;;3.57;67.89
57827;BME280;43656;57.746;11.780;2023-04-07T00:22:40;102313.97;;;3.55;68.07
57827;BME280;43656;57.746;11.780;2023-04-07T00:25:06;102308.97;;;3.50;67.84
57827;BME280;43656;57.746;11.780;2023-04-07T00:27:31;102318.53;;;3.52;67.68
57827;BME280;43656;57.746;11.780;2023-04-07T00:29:57;102320.38;;;3.52;68.27
57827;BME280;43656;57.746;11.780;2023-04-07T00:32:22;102311.63;;;3.50;67.78
57827;BME280;43656;57.746;11.780;2023-04-07T00:34:47;102322.28;;;3.50;68.35
57827;BME280;43656;57.746;11.780;2023-04-07T00:37:13;102293.31;;;3.34;68.46
57827;BME280;43656;57.746;11.780;2023-04-07T00:39:38;102320.47;;;3.50;69.13
57827;BME280;43656;57.746;11.780;2023-04-07T00:42:04;102325.41;;;3.44;68.42
57827;BME280;43656;57.746;11.780;2023-04-07T00:44:32;102322.56;;;3.34;69.13
57827;BME280;43656;57.746;11.780;2023-04-07T00:46:58;102321.97;;;3.30;69.32
57827;BME280;43656;57.746;11.780;2023-04-07T00:49:25;102325.00;;;3.37;69.94
57827;BME280;43656;57.746;11.780;2023-04-07T00:51:53;102330.94;;;3.41;69.81
57827;BME280;43656;57.746;11.780;2023-04-07T00:54:19;102331.56;;;3.44;69.51
57827;BME280;43656;57.746;11.780;2023-04-07T00:56:45;102325.84;;;3.38;69.56
57827;BME280;43656;57.746;11.780;2023-04-07T00:59:11;102317.63;;;3.29;69.80
57827;BME280;43656;57.746;11.780;2023-04-07T01:01:47;102319.31;;;3.30;69.53
57827;BME280;43656;57.746;11.780;2023-04-07T01:06:47;102337.47;;;3.37;69.92
57827;BME280;43656;57.746;11.780;2023-04-07T01:09:20;102340.50;;;3.32;70.37
57827;BME280;43656;57.746;11.780;2023-04-07T01:12:09;102344.75;;;3.35;70.28
57827;BME280;43656;57.746;11.780;2023-04-07T01:14:41;102342.97;;;3.22;70.40
57827;BME280;43656;57.746;11.780;2023-04-07T01:17:11;102341.38;;;3.20;70.54
57827;BME280;43656;57.746;11.780;2023-04-07T01:19:42;102343.06;;;3.21;71.05
57827;BME280;43656;57.746;11.780;2023-04-07T01:22:13;102341.03;;;3.24;71.02
57827;BME280;43656;57.746;11.780;2023-04-07T01:25:16;102346.13;;;3.27;70.80
57827;BME280;43656;57.746;11.780;2023-04-07T01:30:14;102343.75;;;3.36;70.97
57827;BME280;43656;57.746;11.780;2023-04-07T01:32:42;102318.75;;;3.14;70.74
57827;BME280;43656;57.746;11.780;2023-04-07T01:35:11;102346.13;;;3.27;70.50
57827;BME280;43656;57.746;11.780;2023-04-07T01:37:37;102344.66;;;3.23;71.13
57827;BME280;43656;57.746;11.780;2023-04-07T01:40:04;102341.16;;;3.23;70.91
57827;BME280;43656;57.746;11.780;2023-04-07T01:42:32;102343.94;;;3.21;71.05
57827;BME280;43656;57.746;11.780;2023-04-07T01:44:59;102344.88;;;3.20;70.63
57827;BME280;43656;57.746;11.780;2023-04-07T01:47:27;102347.06;;;3.15;70.97
57827;BME280;43656;57.746;11.780;2023-04-07T01:49:57;102313.19;;;2.93;71.51
57827;BME280;43656;57.746;11.780;2023-04-07T01:52:24;102334.91;;;3.11;71.32
57827;BME280;43656;57.746;11.780;2023-04-07T01:54:50;102340.50;;;3.08;71.80
57827;BME280;43656;57.746;11.780;2023-04-07T01:57:16;102343.47;;;3.03;71.72
57827;BME280;43656;57.746;11.780;2023-04-07T01:59:41;102345.16;;;3.04;71.81
57827;BME280;43656;57.746;11.780;2023-04-07T02:02:07;102355.09;;;3.02;71.77
57827;BME280;43656;57.746;11.780;2023-04-07T02:04:54;102350.59;;;3.03;71.96
57827;BME280;43656;57.746;11.780;2023-04-07T02:07:31;102352.47;;;2.90;72.42
57827;BME280;43656;57.746;11.780;2023-04-07T02:10:02;102354.31;;;2.76;72.35
57827;BME280;43656;57.746;11.780;2023-04-07T02:12:28;102351.66;;;2.76;72.24
57827;BME280;43656;57.746;11.780;2023-04-07T02:14:56;102346.16;;;2.54;72.93
57827;BME280;43656;57.746;11.780;2023-04-07T02:17:23;102358.72;;;2.52;73.63
57827;BME280;43656;57.746;11.780;2023-04-07T02:19:50;102367.63;;;2.51;73.45
57827;BME280;43656;57.746;11.780;2023-04-07T02:22:17;102344.47;;;2.53;72.56
57827;BME280;43656;57.746;11.780;2023-04-07T02:24:43;102360.06;;;2.57;72.50
57827;BME280;43656;57.746;11.780;2023-04-07T02:27:08;102354.03;;;2.55;72.30
57827;BME280;43656;57.746;11.780;2023-04-07T02:29:34;102369.84;;;2.57;72.71
57827;BME280;43656;57.746;11.780;2023-04-07T02:31:59;102366.91;;;2.62;72.32
57827;BME280;43656;57.746;11.780;2023-04-07T02:34:25;102362.72;;;2.57;72.88
57827;BME280;43656;57.746;11.780;2023-04-07T02:36:50;102363.34;;;2.61;72.44
57827;BME280;43656;57.746;11.780;2023-04-07T02:39:16;102349.56;;;2.56;72.35
57827;BME280;43656;57.746;11.780;2023-04-07T02:41:41;102370.81;;;2.69;71.86
57827;BME280;43656;57.746;11.780;2023-04-07T02:44:07;102368.78;;;2.72;72.38
57827;BME280;43656;57.746;11.780;2023-04-07T02:46:32;102365.81;;;2.64;72.14
57827;BME280;43656;57.746;11.780;2023-04-07T02:48:57;102371.53;;;2.71;72.33
57827;BME280;43656;57.746;11.780;2023-04-07T02:51:23;102374.41;;;2.68;71.92
57827;BME280;43656;57.746;11.780;2023-04-07T02:53:48;102375.50;;;2.65;71.64
57827;BME280;43656;57.746;11.780;2023-04-07T02:56:14;102375.31;;;2.17;74.03
57827;BME280;43656;57.746;11.780;2023-04-07T02:58:40;102365.09;;;1.85;75.28
57827;BME280;43656;57.746;11.780;2023-04-07T03:01:05;102381.78;;;2.13;73.77
57827;BME280;43656;57.746;11.780;2023-04-07T03:03:31;102381.16;;;2.22;73.16
57827;BME280;43656;57.746;11.780;2023-04-07T03:05:56;102384.53;;;2.11;74.65
57827;BME280;43656;57.746;11.780;2023-04-07T03:08:21;102361.69;;;2.22;73.66
57827;BME280;43656;57.746;11.780;2023-04-07T03:10:47;102391.13;;;2.44;72.92
57827;BME280;43656;57.746;11.780;2023-04-07T03:13:12;102390.91;;;2.47;72.76
57827;BME280;43656;57.746;11.780;2023-04-07T03:15:41;102389.31;;;2.45;72.60
57827;BME280;43656;57.746;11.780;2023-04-07T03:18:07;102399.72;;;2.48;72.32
57827;BME280;43656;57.746;11.780;2023-04-07T03:20:33;102397.63;;;2.40;72.40
57827;BME280;43656;57.746;11.780;2023-04-07T03:22:58;102394.09;;;2.40;72.26
57827;BME280;43656;57.746;11.780;2023-04-07T03:25:24;102396.13;;;2.36;72.58
57827;BME280;43656;57.746;11.780;2023-04-07T03:27:50;102402.72;;;2.30;72.67
57827;BME280;43656;57.746;11.780;2023-04-07T03:30:16;102387.94;;;2.26;72.70
57827;BME280;43656;57.746;11.780;2023-04-07T03:32:41;102411.44;;;2.32;71.84
57827;BME280;43656;57.746;11.780;2023-04-07T03:35:07;102410.16;;;2.25;72.61
57827;BME280;43656;57.746;11.780;2023-04-07T03:37:32;102408.66;;;2.21;72.85
57827;BME280;43656;57.746;11.780;2023-04-07T03:39:58;102409.75;;;2.19;72.55
57827;BME280;43656;57.746;11.780;2023-04-07T03:42:23;102411.63;;;2.04;73.27
57827;BME280;43656;57.746;11.780;2023-04-07T03:44:48;102415.88;;;2.06;72.85
57827;BME280;43656;57.746;11.780;2023-04-07T03:47:14;102361.13;;;1.78;72.88
57827;BME280;43656;57.746;11.780;2023-04-07T03:49:39;102394.50;;;2.08;72.63
57827;BME280;43656;57.746;11.780;2023-04-07T03:52:05;102408.78;;;2.20;72.98
57827;BME280;43656;57.746;11.780;2023-04-07T03:54:30;102408.44;;;1.99;75.36
57827;BME280;43656;57.746;11.780;2023-04-07T03:56:56;102402.03;;;2.01;75.49
57827;BME280;43656;57.746;11.780;2023-04-07T03:59:21;102418.53;;;2.19;73.87
57827;BME280;43656;57.746;11.780;2023-04-07T04:01:47;102403.88;;;2.14;73.42
57827;BME280;43656;57.746;11.780;2023-04-07T04:04:13;102400.03;;;2.05;73.71
57827;BME280;43656;57.746;11.780;2023-04-07T04:06:38;102418.75;;;2.16;73.50
57827;BME280;43656;57.746;11.780;2023-04-07T04:09:03;102421.84;;;2.23;73.00
57827;BME280;43656;57.746;11.780;2023-04-07T04:11:29;102414.16;;;2.18;73.24
57827;BME280;43656;57.746;11.780;2023-04-07T04:13:56;102419.81;;;2.14;73.34
57827;BME280;43656;57.746;11.780;2023-04-07T04:16:21;102424.16;;;2.15;73.32
57827;BME280;43656;57.746;11.780;2023-04-07T04:18:46;102433.19;;;2.12;73.66
57827;BME280;43656;57.746;11.780;2023-04-07T04:21:12;102433.09;;;2.14;72.86
57827;BME280;43656;57.746;11.780;2023-04-07T04:23:37;102434.69;;;2.16;72.98
57827;BME280;43656;57.746;11.780;2023-04-07T04:26:02;102431.19;;;2.16;73.19
57827;BME280;43656;57.746;11.780;2023-04-07T04:28:28;102432.25;;;2.13;73.39
57827;BME280;43656;57.746;11.780;2023-04-07T04:30:54;102435.75;;;2.14;73.24
57827;BME280;43656;57.746;11.780;2023-04-07T04:33:19;102438.72;;;2.09;73.31
57827;BME280;43656;57.746;11.780;2023-04-07T04:35:45;102439.00;;;2.04;73.22
57827;BME280;43656;57.746;11.780;2023-04-07T04:38:11;102439.47;;;2.37;73.04
57827;BME280;43656;57.746;11.780;2023-04-07T04:40:36;102442.66;;;2.80;71.67
57827;BME280;43656;57.746;11.780;2023-04-07T04:43:02;102445.88;;;3.22;71.11
57827;BME280;43656;57.746;11.780;2023-04-07T04:45:31;102448.16;;;3.63;70.23
57827;BME280;43656;57.746;11.780;2023-04-07T04:47:57;102450.88;;;4.10;68.60
57827;BME280;43656;57.746;11.780;2023-04-07T04:50:22;102450.63;;;4.48;68.25
57827;BME280;43656;57.746;11.780;2023-04-07T04:52:47;102455.50;;;4.88;67.08
57827;BME280;43656;57.746;11.780;2023-04-07T04:55:13;102451.34;;;5.29;65.86
57827;BME280;43656;57.746;11.780;2023-04-07T04:57:38;102456.34;;;5.65;64.46
57827;BME280;43656;57.746;11.780;2023-04-07T05:00:05;102462.78;;;6.06;63.46
57827;BME280;43656;57.746;11.780;2023-04-07T05:02:32;102457.75;;;6.34;62.33
57827;BME280;43656;57.746;11.780;2023-04-07T05:04:57;102467.88;;;6.82;61.00
57827;BME280;43656;57.746;11.780;2023-04-07T05:07:23;102451.22;;;6.99;59.47
57827;BME280;43656;57.746;11.780;2023-04-07T05:09:48;102475.09;;;7.32;58.74
57827;BME280;43656;57.746;11.780;2023-04-07T05:12:14;102471.94;;;7.57;57.61
57827;BME280;43656;57.746;11.780;2023-04-07T05:14:40;102454.59;;;7.71;57.50
57827;BME280;43656;57.746;11.780;2023-04-07T05:17:06;102471.50;;;8.30;56.64
57827;BME280;43656;57.746;11.780;2023-04-07T05:19:31;102466.88;;;8.22;55.44
57827;BME280;43656;57.746;11.780;2023-04-07T05:21:57;102475.31;;;8.27;54.41
57827;BME280;43656;57.746;11.780;2023-04-07T05:24:27;102468.09;;;8.37;54.25
57827;BME280;43656;57.746;11.780;2023-04-07T05:26:52;102479.41;;;8.51;53.92
57827;BME280;43656;57.746;11.780;2023-04-07T05:29:18;102475.75;;;8.52;52.80
57827;BME280;43656;57.746;11.780;2023-04-07T05:31:43;102480.59;;;8.85;52.86
57827;BME280;43656;57.746;11.780;2023-04-07T05:34:09;102460.88;;;9.04;51.86
57827;BME280;43656;57.746;11.780;2023-04-07T05:36:34;102457.81;;;8.89;52.13
57827;BME280;43656;57.746;11.780;2023-04-07T05:39:00;102478.66;;;7.51;55.09
57827;BME280;43656;57.746;11.780;2023-04-07T05:41:26;102480.06;;;6.44;58.20
57827;BME280;43656;57.746;11.780;2023-04-07T05:43:51;102460.53;;;5.47;61.06
57827;BME280;43656;57.746;11.780;2023-04-07T05:46:16;102480.22;;;5.12;63.74
57827;BME280;43656;57.746;11.780;2023-04-07T05:48:42;102499.41;;;4.84;65.30
57827;BME280;43656;57.746;11.780;2023-04-07T05:51:07;102497.16;;;4.66;67.15
57827;BME280;43656;57.746;11.780;2023-04-07T05:53:33;102498.03;;;4.67;67.14
57827;BME280;43656;57.746;11.780;2023-04-07T05:55:58;102503.56;;;4.53;67.86
57827;BME280;43656;57.746;11.780;2023-04-07T05:58:23;102505.41;;;4.63;68.64
57827;BME280;43656;57.746;11.780;2023-04-07T06:00:49;102484.44;;;4.70;68.67
57827;BME280;43656;57.746;11.780;2023-04-07T06:03:15;102504.13;;;4.80;68.33
57827;BME280;43656;57.746;11.780;2023-04-07T06:05:40;102511.16;;;4.81;68.39
57827;BME280;43656;57.746;11.780;2023-04-07T06:08:08;102508.44;;;4.70;69.44
57827;BME280;43656;57.746;11.780;2023-04-07T06:10:35;102488.19;;;4.56;69.20
57827;BME280;43656;57.746;11.780;2023-04-07T06:13:00;102509.81;;;4.98;68.68
57827;BME280;43656;57.746;11.780;2023-04-07T06:15:26;102508.97;;;5.09;67.94
57827;BME280;43656;57.746;11.780;2023-04-07T06:17:51;102517.47;;;5.14;68.16
57827;BME280;43656;57.746;11.780;2023-04-07T06:20:16;102517.94;;;5.30;67.87
57827;BME280;43656;57.746;11.780;2023-04-07T06:22:42;102499.50;;;5.38;67.24
57827;BME280;43656;57.746;11.780;2023-04-07T06:25:08;102499.09;;;5.54;67.55
57827;BME280;43656;57.746;11.780;2023-04-07T06:27:34;102516.78;;;5.78;67.24
57827;BME280;43656;57.746;11.780;2023-04-07T06:30:00;102514.84;;;5.69;67.39
57827;BME280;43656;57.746;11.780;2023-04-07T06:32:25;102485.72;;;5.65;66.96
57827;BME280;43656;57.746;11.780;2023-04-07T06:34:51;102519.06;;;5.82;67.25
57827;BME280;43656;57.746;11.780;2023-04-07T06:37:16;102523.53;;;5.50;68.58
57827;BME280;43656;57.746;11.780;2023-04-07T06:39:42;102522.19;;;5.44;68.84
57827;BME280;43656;57.746;11.780;2023-04-07T06:42:08;102527.63;;;5.42;69.60
57827;BME280;43656;57.746;11.780;2023-04-07T06:44:33;102520.56;;;5.64;68.93
57827;BME280;43656;57.746;11.780;2023-04-07T06:46:58;102521.13;;;5.90;68.20
57827;BME280;43656;57.746;11.780;2023-04-07T06:49:24;102523.25;;;6.07;67.89
57827;BME280;43656;57.746;11.780;2023-04-07T06:51:49;102529.09;;;6.13;67.17
57827;BME280;43656;57.746;11.780;2023-04-07T06:54:15;102523.59;;;6.14;67.14
57827;BME280;43656;57.746;11.780;2023-04-07T06:56:41;102508.81;;;6.52;65.94
57827;BME280;43656;57.746;11.780;2023-04-07T06:59:07;102518.16;;;6.57;65.97
57827;BME280;43656;57.746;11.780;2023-04-07T07:01:32;102527.09;;;6.47;66.54
57827;BME280;43656;57.746;11.780;2023-04-07T07:03:58;102527.19;;;6.24;67.04
57827;BME280;43656;57.746;11.780;2023-04-07T07:06:25;102503.72;;;6.28;67.17
57827;BME280;43656;57.746;11.780;2023-04-07T07:08:51;102531.66;;;6.56;66.73
57827;BME280;43656;57.746;11.780;2023-04-07T07:11:17;102533.97;;;6.91;66.44
57827;BME280;43656;57.746;11.780;2023-04-07T07:13:42;102529.97;;;6.76;66.60
57827;BME280;43656;57.746;11.780;2023-04-07T07:16:09;102528.09;;;6.97;66.26
57827;BME280;43656;57.746;11.780;2023-04-07T07:18:35;102524.53;;;6.87;65.79
57827;BME280;43656;57.746;11.780;2023-04-07T07:21:01;102539.28;;;6.81;66.65
57827;BME280;43656;57.746;11.780;2023-04-07T07:23:26;102539.75;;;7.17;66.32
57827;BME280;43656;57.746;11.780;2023-04-07T07:25:52;102524.28;;;7.30;65.23
57827;BME280;43656;57.746;11.780;2023-04-07T07:28:17;102531.22;;;7.33;65.19
57827;BME280;43656;57.746;11.780;2023-04-07T07:30:43;102551.50;;;7.26;65.22
57827;BME280;43656;57.746;11.780;2023-04-07T07:33:08;102548.63;;;7.18;65.06
57827;BME280;43656;57.746;11.780;2023-04-07T07:35:34;102550.75;;;6.93;66.14
57827;BME280;43656;57.746;11.780;2023-04-07T07:38:01;102541.13;;;7.12;65.32
57827;BME280;43656;57.746;11.780;2023-04-07T07:40:27;102547.84;;;7.37;65.58
57827;BME280;43656;57.746;11.780;2023-04-07T07:42:52;102551.19;;;7.60;64.97
57827;BME280;43656;57.746;11.780;2023-04-07T07:45:18;102554.59;;;7.81;64.24
57827;BME280;43656;57.746;11.780;2023-04-07T07:47:43;102530.44;;;7.52;64.99
57827;BME280;43656;57.746;11.780;2023-04-07T07:50:09;102554.88;;;7.68;64.81
57827;BME280;43656;57.746;11.780;2023-04-07T07:52:35;102547.81;;;7.77;64.87
57827;BME280;43656;57.746;11.780;2023-04-07T07:55:00;102555.75;;;8.08;65.00
57827;BME280;43656;57.746;11.780;2023-04-07T07:57:26;102557.88;;;7.85;66.21
57827;BME280;43656;57.746;11.780;2023-04-07T07:59:51;102562.53;;;7.92;66.44
57827;BME280;43656;57.746;11.780;2023-04-07T08:02:17;102558.00;;;7.83;66.31
57827;BME280;43656;57.746;11.780;2023-04-07T08:04:43;102572.81;;;7.87;65.78
57827;BME280;43656;57.746;11.780;2023-04-07T08:07:08;102574.06;;;7.83;66.13
57827;BME280;43656;57.746;11.780;2023-04-07T08:09:36;102572.97;;;7.86;65.66
57827;BME280;43656;57.746;11.780;2023-04-07T08:12:01;102565.81;;;8.06;65.87
57827;BME280;43656;57.746;11.780;2023-04-07T08:14:28;102556.72;;;7.87;65.75
57827;BME280;43656;57.746;11.780;2023-04-07T08:16:54;102574.25;;;8.01;64.97
57827;BME280;43656;57.746;11.780;2023-04-07T08:19:20;102561.25;;;7.96;65.57
57827;BME280;43656;57.746;11.780;2023-04-07T08:21:45;102578.22;;;8.07;65.08
57827;BME280;43656;57.746;11.780;2023-04-07T08:24:11;102581.03;;;7.95;65.20
57827;BME280;43656;57.746;11.780;2023-04-07T08:26:36;102581.59;;;8.09;65.02
57827;BME280;43656;57.746;11.780;2023-04-07T08:29:02;102589.88;;;7.86;64.28
57827;BME280;43656;57.746;11.780;2023-04-07T08:31:28;102591.56;;;7.87;65.10
57827;BME280;43656;57.746;11.780;2023-04-07T08:33:53;102584.03;;;8.21;64.30
57827;BME280;43656;57.746;11.780;2023-04-07T08:36:25;102583.75;;;8.15;63.13
57827;BME280;43656;57.746;11.780;2023-04-07T08:38:52;102579.06;;;8.17;62.15
57827;BME280;43656;57.746;11.780;2023-04-07T08:41:28;102578.97;;;8.47;61.90
57827;BME280;43656;57.746;11.780;2023-04-07T08:43:56;102586.59;;;8.52;61.03
57827;BME280;43656;57.746;11.780;2023-04-07T08:46:24;102573.13;;;8.13;60.08
57827;BME280;43656;57.746;11.780;2023-04-07T08:48:51;102581.78;;;8.46;59.70
57827;BME280;43656;57.746;11.780;2023-04-07T08:51:26;102582.63;;;8.56;58.41
57827;BME280;43656;57.746;11.780;2023-04-07T08:53:53;102577.63;;;8.90;58.40
57827;BME280;43656;57.746;11.780;2023-04-07T08:56:23;102583.47;;;8.76;57.75
57827;BME280;43656;57.746;11.780;2023-04-07T08:58:48;102588.50;;;8.99;56.91
57827;BME280;43656;57.746;11.780;2023-04-07T09:01:15;102582.72;;;8.84;55.56
57827;BME280;43656;57.746;11.780;2023-04-07T09:03:43;102585.00;;;8.88;55.32
57827;BME280;43656;57.746;11.780;2023-04-07T09:06:09;102565.69;;;8.75;53.57
57827;BME280;43656;57.746;11.780;2023-04-07T09:08:37;102581.13;;;9.10;53.87
57827;BME280;43656;57.746;11.780;2023-04-07T09:11:03;102582.00;;;9.11;53.63
57827;BME280;43656;57.746;11.780;2023-04-07T09:13:28;102580.78;;;9.23;52.90
57827;BME280;43656;57.746;11.780;2023-04-07T09:15:56;102572.16;;;9.57;53.39
57827;BME280;43656;57.746;11.780;2023-04-07T09:18:21;102573.53;;;9.33;53.00
57827;BME280;43656;57.746;11.780;2023-04-07T09:21:03;102572.78;;;9.51;53.67
57827;BME280;43656;57.746;11.780;2023-04-07T09:23:30;102578.78;;;9.35;52.96
57827;BME280;43656;57.746;11.780;2023-04-07T09:25:57;102558.13;;;9.35;52.98
57827;BME280;43656;57.746;11.780;2023-04-07T09:28:24;102567.38;;;9.60;53.56
57827;BME280;43656;57.746;11.780;2023-04-07T09:30:54;102570.38;;;9.75;53.55
57827;BME280;43656;57.746;11.780;2023-04-07T09:33:29;102567.41;;;9.78;53.02
57827;BME280;43656;57.746;11.780;2023-04-07T09:35:55;102562.44;;;9.83;52.90
57827;BME280;43656;57.746;11.780;2023-04-07T09:38:21;102556.63;;;9.78;53.40
57827;BME280;43656;57.746;11.780;2023-04-07T09:40:46;102564.06;;;10.12;53.73
57827;BME280;43656;57.746;11.780;2023-04-07T09:43:16;102558.06;;;10.00;53.02
57827;BME280;43656;57.746;11.780;2023-04-07T09:45:43;102571.75;;;9.79;53.73
57827;BME280;43656;57.746;11.780;2023-04-07T09:48:17;102562.56;;;10.00;52.66
57827;BME280;43656;57.746;11.780;2023-04-07T09:50:44;102556.75;;;10.22;52.58
57827;BME280;43656;57.746;11.780;2023-04-07T09:53:14;102545.56;;;10.27;52.90
57827;BME280;43656;57.746;11.780;2023-04-07T09:55:39;102553.50;;;10.72;51.97
57827;BME280;43656;57.746;11.780;2023-04-07T09:58:06;102542.88;;;10.71;51.55
57827;BME280;43656;57.746;11.780;2023-04-07T10:00:34;102549.69;;;10.57;52.64
57827;BME280;43656;57.746;11.780;2023-04-07T10:03:00;102557.25;;;10.53;51.71
57827;BME280;43656;57.746;11.780;2023-04-07T10:05:26;102541.38;;;10.94;51.94
57827;BME280;43656;57.746;11.780;2023-04-07T10:07:52;102543.34;;;10.92;51.18
57827;BME280;43656;57.746;11.780;2023-04-07T10:10:18;102539.16;;;10.90;52.27
57827;BME280;43656;57.746;11.780;2023-04-07T10:12:44;102523.03;;;10.72;51.11
57827;BME280;43656;57.746;11.780;2023-04-07T10:15:13;102538.25;;;10.37;49.30
57827;BME280;43656;57.746;11.780;2023-04-07T10:17:45;102538.47;;;11.22;48.78
57827;BME280;43656;57.746;11.780;2023-04-07T10:20:16;102542.31;;;11.11;48.63
57827;BME280;43656;57.746;11.780;2023-04-07T10:22:43;102535.44;;;11.17;47.53
57827;BME280;43656;57.746;11.780;2023-04-07T10:25:11;102494.75;;;11.02;47.19
57827;BME280;43656;57.746;11.780;2023-04-07T10:27:53;102535.38;;;11.43;46.59
57827;BME280;43656;57.746;11.780;2023-04-07T10:30:25;102531.59;;;11.19;46.98
57827;BME280;43656;57.746;11.780;2023-04-07T10:32:53;102537.00;;;11.27;46.58
57827;BME280;43656;57.746;11.780;2023-04-07T10:35:19;102548.53;;;11.12;45.92
57827;BME280;43656;57.746;11.780;2023-04-07T10:40:35;102526.53;;;11.24;46.19
57827;BME280;43656;57.746;11.780;2023-04-07T10:43:02;102537.31;;;11.24;45.87
57827;BME280;43656;57.746;11.780;2023-04-07T10:48:19;102536.03;;;11.37;45.10
57827;BME280;43656;57.746;11.780;2023-04-07T10:50:46;102499.44;;;11.26;45.06
57827;BME280;43656;57.746;11.780;2023-04-07T10:53:31;102532.19;;;11.47;44.89
57827;BME280;43656;57.746;11.780;2023-04-07T10:55:58;102536.81;;;11.63;44.12
57827;BME280;43656;57.746;11.780;2023-04-07T11:03:35;102530.31;;;11.90;45.73
57827;BME280;43656;57.746;11.780;2023-04-07T11:06:08;102544.69;;;12.07;45.54
57827;BME280;43656;57.746;11.780;2023-04-07T11:08:35;102531.38;;;12.06;43.67
57827;BME280;43656;57.746;11.780;2023-04-07T11:11:01;102529.53;;;12.06;44.36
57827;BME280;43656;57.746;11.780;2023-04-07T11:13:27;102521.94;;;12.18;44.90
57827;BME280;43656;57.746;11.780;2023-04-07T11:15:53;102523.13;;;12.23;44.50
57827;BME280;43656;57.746;11.780;2023-04-07T11:18:20;102519.97;;;11.77;42.18
57827;BME280;43656;57.746;11.780;2023-04-07T11:20:55;102506.56;;;11.94;41.02
57827;BME280;43656;57.746;11.780;2023-04-07T11:23:22;102529.00;;;12.11;41.74
57827;BME280;43656;57.746;11.780;2023-04-07T11:25:51;102520.78;;;12.29;41.89
57827;BME280;43656;57.746;11.780;2023-04-07T11:28:17;102519.06;;;12.28;41.27
57827;BME280;43656;57.746;11.780;2023-04-07T11:30:49;102520.75;;;11.96;41.27
57827;BME280;43656;57.746;11.780;2023-04-07T11:33:20;102514.84;;;12.01;41.84
57827;BME280;43656;57.746;11.780;2023-04-07T11:35:57;102520.41;;;12.23;40.37
57827;BME280;43656;57.746;11.780;2023-04-07T11:38:28;102513.81;;;12.02;40.99
57827;BME280;43656;57.746;11.780;2023-04-07T11:40:55;102519.72;;;12.21;40.68
57827;BME280;43656;57.746;11.780;2023-04-07T11:43:25;102517.06;;;12.46;40.79
57827;BME280;43656;57.746;11.780;2023-04-07T11:46:10;102525.47;;;12.35;40.17
57827;BME280;43656;57.746;11.780;2023-04-07T11:48:38;102522.44;;;12.62;40.81
57827;BME280;43656;57.746;11.780;2023-04-07T11:51:04;102519.41;;;12.41;40.44
57827;BME280;43656;57.746;11.780;2023-04-07T11:53:33;102525.31;;;12.53;40.57
57827;BME280;43656;57.746;11.780;2023-04-07T11:56:09;102517.88;;;12.46;40.67
57827;BME280;43656;57.746;11.780;2023-04-07T11:58:48;102504.22;;;12.40;41.21
57827;BME280;43656;57.746;11.780;2023-04-07T12:01:14;102489.03;;;12.47;41.91
57827;BME280;43656;57.746;11.780;2023-04-07T12:04:00;102500.50;;;12.49;39.37
57827;BME280;43656;57.746;11.780;2023-04-07T12:06:31;102514.31;;;12.79;40.67
57827;BME280;43656;57.746;11.780;2023-04-07T12:08:59;102520.34;;;12.97;40.93
57827;BME280;43656;57.746;11.780;2023-04-07T12:11:26;102517.97;;;12.94;40.27
57827;BME280;43656;57.746;11.780;2023-04-07T12:13:52;102392.88;;;11.64;40.29
57827;BME280;43656;57.746;11.780;2023-04-07T12:16:18;102513.66;;;12.44;39.67
57827;BME280;43656;57.746;11.780;2023-04-07T12:18:44;102507.50;;;12.91;39.40
57827;BME280;43656;57.746;11.780;2023-04-07T12:21:10;102514.50;;;12.44;39.15
57827;BME280;43656;57.746;11.780;2023-04-07T12:23:35;102514.66;;;12.67;39.75
57827;BME280;43656;57.746;11.780;2023-04-07T12:26:01;102506.53;;;12.76;39.23
57827;BME280;43656;57.746;11.780;2023-04-07T12:28:27;102502.63;;;12.86;38.96
57827;BME280;43656;57.746;11.780;2023-04-07T12:30:53;102499.13;;;12.69;38.71
57827;BME280;43656;57.746;11.780;2023-04-07T12:33:18;102515.94;;;12.88;39.97
57827;BME280;43656;57.746;11.780;2023-04-07T12:35:43;102504.97;;;12.98;39.80
57827;BME280;43656;57.746;11.780;2023-04-07T12:38:09;102504.72;;;13.32;38.99
57827;BME280;43656;57.746;11.780;2023-04-07T12:40:34;102501.97;;;13.40;38.33
57827;BME280;43656;57.746;11.780;2023-04-07T12:43:00;102491.97;;;12.93;37.62
57827;BME280;43656;57.746;11.780;2023-04-07T12:45:26;102499.97;;;12.78;37.84
57827;BME280;43656;57.746;11.780;2023-04-07T12:47:54;102483.59;;;12.63;38.38
57827;BME280;43656;57.746;11.780;2023-04-07T12:50:20;102503.63;;;12.93;38.36
57827;BME280;43656;57.746;11.780;2023-04-07T12:52:45;102500.22;;;13.55;38.13
57827;BME280;43656;57.746;11.780;2023-04-07T12:55:12;102495.91;;;13.38;39.45
57827;BME280;43656;57.746;11.780;2023-04-07T12:57:38;102494.66;;;13.49;39.41
57827;BME280;43656;57.746;11.780;2023-04-07T13:00:04;102484.59;;;13.66;39.89
57827;BME280;43656;57.746;11.780;2023-04-07T13:02:30;102462.97;;;13.34;38.78